Time;durP1;ratioP1;P1;durP2;ratioP2;P2;SDS_P1;SDS_P2;PMS_P1;PMS_P2;Temp;Humidity;BMP_temperature;BMP_pressure;BME280_temperature;BME280_humidity;BME280_pressure;Samples;Min_cycle;Max_cycle;Signal;HPM_P1;HPM_P2
2022/10/30 00:00:51;;;;;;;15.27;2.05;;;;;;;;;;4984684;28;20397;-56
2022/10/30 00:03:18;;;;;;;9.98;1.60;;;;;;;;;;4974629;28;20030;-55
2022/10/30 00:05:46;;;;;;;15.18;1.90;;;;;;;;;;4972511;28;20034;-54
2022/10/30 00:08:14;;;;;;;14.90;1.75;;;;;;;;;;4985061;28;20026;-54
2022/10/30 00:10:41;;;;;;;11.70;1.17;;;;;;;;;;4981009;28;20050;-56
2022/10/30 00:13:09;;;;;;;13.25;1.55;;;;;;;;;;4985235;28;20045;-55
2022/10/30 00:15:36;;;;;;;9.20;1.58;;;;;;;;;;4976751;28;20055;-51
2022/10/30 00:18:03;;;;;;;9.77;1.38;;;;;;;;;;4976610;28;20429;-55
2022/10/30 00:20:30;;;;;;;5.25;1.70;;;;;;;;;;4976269;28;20027;-54
2022/10/30 00:22:57;;;;;;;9.85;1.58;;;;;;;;;;4976712;28;20441;-54
2022/10/30 00:25:24;;;;;;;8.70;1.45;;;;;;;;;;4976520;28;20031;-56
2022/10/30 00:27:51;;;;;;;8.35;1.25;;;;;;;;;;4976106;28;20038;-56
2022/10/30 00:30:18;;;;;;;11.18;1.77;;;;;;;;;;4976273;28;20070;-55
2022/10/30 00:32:45;;;;;;;6.90;1.38;;;;;;;;;;4975996;28;20093;-53
2022/10/30 00:35:12;;;;;;;12.00;1.80;;;;;;;;;;4976115;28;20043;-55
2022/10/30 00:37:39;;;;;;;8.77;1.63;;;;;;;;;;4979047;28;20489;-54
2022/10/30 00:40:06;;;;;;;8.52;1.95;;;;;;;;;;4986772;28;20026;-56
2022/10/30 00:42:34;;;;;;;14.07;2.25;;;;;;;;;;4975766;28;20522;-52
2022/10/30 00:45:01;;;;;;;6.75;2.10;;;;;;;;;;4976253;28;20041;-55
2022/10/30 00:47:31;;;;;;;8.57;2.13;;;;;;;;;;4976155;28;20038;-57
2022/10/30 00:50:00;;;;;;;7.78;1.73;;;;;;;;;;4975766;28;20500;-57
2022/10/30 00:52:30;;;;;;;7.22;1.80;;;;;;;;;;4975964;28;20034;-54
2022/10/30 00:54:58;;;;;;;10.05;1.77;;;;;;;;;;4975856;28;20066;-54
2022/10/30 00:57:25;;;;;;;11.18;1.98;;;;;;;;;;4975721;28;20030;-54
2022/10/30 00:59:52;;;;;;;7.38;1.48;;;;;;;;;;4975745;28;20038;-54
2022/10/30 01:02:20;;;;;;;6.68;1.42;;;;;;;;;;4975838;28;20063;-54
2022/10/30 01:04:48;;;;;;;8.57;1.70;;;;;;;;;;4975594;28;20038;-55
2022/10/30 01:07:16;;;;;;;6.15;1.70;;;;;;;;;;4975558;28;20063;-54
2022/10/30 01:09:45;;;;;;;8.52;1.50;;;;;;;;;;4975531;28;20058;-54
2022/10/30 01:12:12;;;;;;;7.15;1.60;;;;;;;;;;4975122;28;20038;-53
2022/10/30 01:14:40;;;;;;;6.13;1.50;;;;;;;;;;4975746;28;20042;-56
2022/10/30 01:17:16;;;;;;;11.63;1.30;;;;;;;;;;4977277;28;20417;-55
2022/10/30 01:19:55;;;;;;;10.50;1.48;;;;;;;;;;4985602;28;20555;-56
2022/10/30 01:22:22;;;;;;;5.40;1.45;;;;;;;;;;4977276;28;20480;-57
2022/10/30 01:25:05;;;;;;;7.80;1.55;;;;;;;;;;4986210;28;20113;-54
2022/10/30 01:27:58;;;;;;;7.38;1.63;;;;;;;;;;4988643;28;20069;-53
2022/10/30 01:30:38;;;;;;;8.75;1.17;;;;;;;;;;4979546;28;20069;-54
2022/10/30 01:33:23;;;;;;;14.40;1.38;;;;;;;;;;4973587;28;20068;-60
2022/10/30 01:36:02;;;;;;;28.75;1.67;;;;;;;;;;4985134;28;20076;-57
2022/10/30 01:38:35;;;;;;;17.75;1.75;;;;;;;;;;4988729;28;20049;-56
2022/10/30 01:41:02;;;;;;;16.65;1.80;;;;;;;;;;4991116;28;20500;-61
2022/10/30 01:43:29;;;;;;;14.85;1.45;;;;;;;;;;4976401;28;20034;-56
2022/10/30 01:46:04;;;;;;;21.50;1.92;;;;;;;;;;4986213;28;20027;-59
2022/10/30 01:48:55;;;;;;;11.80;1.70;;;;;;;;;;4992005;28;20026;-56
2022/10/30 01:51:40;;;;;;;16.58;1.70;;;;;;;;;;4992427;28;20038;-57
2022/10/30 01:54:10;;;;;;;39.08;3.20;;;;;;;;;;4991656;28;20038;-59
2022/10/30 01:56:40;;;;;;;21.02;2.05;;;;;;;;;;4992829;28;20037;-58
2022/10/30 01:59:15;;;;;;;22.33;2.00;;;;;;;;;;4993192;28;20057;-61
2022/10/30 02:01:43;;;;;;;28.60;2.30;;;;;;;;;;4977956;28;20066;-60
2022/10/30 02:04:12;;;;;;;24.40;1.90;;;;;;;;;;4981969;28;20109;-61
2022/10/30 02:06:40;;;;;;;13.43;1.50;;;;;;;;;;4979620;28;20026;-58
2022/10/30 02:09:07;;;;;;;11.35;1.60;;;;;;;;;;4974180;28;20054;-60
2022/10/30 02:11:34;;;;;;;19.60;1.80;;;;;;;;;;4974020;28;20034;-59
2022/10/30 02:14:04;;;;;;;15.73;1.75;;;;;;;;;;4973997;28;20119;-60
2022/10/30 02:16:34;;;;;;;14.73;1.73;;;;;;;;;;4974303;28;20035;-60
2022/10/30 02:19:02;;;;;;;14.15;1.95;;;;;;;;;;4974002;28;20045;-59
2022/10/30 02:21:29;;;;;;;14.60;2.20;;;;;;;;;;4973828;28;20038;-56
2022/10/30 02:23:56;;;;;;;10.77;1.30;;;;;;;;;;4973899;28;20412;-58
2022/10/30 02:26:23;;;;;;;9.43;1.30;;;;;;;;;;4973910;28;20029;-59
2022/10/30 02:28:50;;;;;;;7.72;1.48;;;;;;;;;;4974474;28;20586;-58
2022/10/30 02:31:18;;;;;;;11.15;1.35;;;;;;;;;;4982255;28;20058;-57
2022/10/30 02:33:47;;;;;;;8.05;0.98;;;;;;;;;;4973051;28;20058;-56
2022/10/30 02:36:15;;;;;;;8.27;1.10;;;;;;;;;;4973663;28;20798;-58
2022/10/30 02:38:42;;;;;;;13.70;1.05;;;;;;;;;;4991363;28;20097;-56
2022/10/30 02:41:10;;;;;;;15.88;1.60;;;;;;;;;;4987902;28;20030;-56
2022/10/30 02:43:37;;;;;;;10.80;1.30;;;;;;;;;;4988163;28;20098;-56
2022/10/30 02:46:04;;;;;;;9.77;1.30;;;;;;;;;;4973754;28;20129;-58
2022/10/30 02:48:31;;;;;;;7.05;1.15;;;;;;;;;;4973691;28;20493;-58
2022/10/30 02:51:02;;;;;;;12.30;0.93;;;;;;;;;;4983145;28;20037;-57
2022/10/30 02:53:29;;;;;;;14.13;1.35;;;;;;;;;;4972838;28;20034;-54
2022/10/30 02:55:56;;;;;;;21.27;1.35;;;;;;;;;;4979462;28;20101;-57
2022/10/30 02:58:24;;;;;;;14.70;1.23;;;;;;;;;;4992255;28;20029;-53
2022/10/30 03:00:54;;;;;;;25.42;1.95;;;;;;;;;;4974896;28;20092;-57
2022/10/30 03:03:22;;;;;;;25.52;1.42;;;;;;;;;;4991757;28;20045;-55
2022/10/30 03:05:49;;;;;;;11.70;1.55;;;;;;;;;;4992422;28;20037;-57
2022/10/30 03:08:16;;;;;;;20.48;1.20;;;;;;;;;;4982945;28;20173;-59
2022/10/30 03:10:43;;;;;;;12.85;1.30;;;;;;;;;;4986797;28;20030;-58
2022/10/30 03:13:10;;;;;;;16.60;1.40;;;;;;;;;;4973289;28;20485;-58
2022/10/30 03:15:37;;;;;;;11.15;1.00;;;;;;;;;;4973127;28;20030;-53
2022/10/30 03:18:04;;;;;;;9.82;1.10;;;;;;;;;;4973430;28;20023;-56
2022/10/30 03:20:31;;;;;;;9.00;1.05;;;;;;;;;;4973495;28;20062;-54
2022/10/30 03:22:58;;;;;;;11.85;0.85;;;;;;;;;;4986357;28;20030;-57
2022/10/30 03:25:25;;;;;;;6.82;0.80;;;;;;;;;;4973393;28;20369;-59
2022/10/30 03:27:52;;;;;;;8.32;0.80;;;;;;;;;;4973226;28;20027;-59
2022/10/30 03:30:19;;;;;;;7.90;0.80;;;;;;;;;;4973188;28;20039;-60
2022/10/30 03:32:46;;;;;;;9.65;1.05;;;;;;;;;;4973054;28;20037;-56
2022/10/30 03:35:13;;;;;;;11.30;0.80;;;;;;;;;;4973062;28;20035;-60
2022/10/30 03:37:40;;;;;;;11.75;1.02;;;;;;;;;;4972891;28;20031;-60
2022/10/30 03:40:07;;;;;;;10.90;1.10;;;;;;;;;;4973097;28;20110;-57
2022/10/30 03:42:34;;;;;;;5.88;0.63;;;;;;;;;;4972843;28;20077;-58
2022/10/30 03:45:01;;;;;;;8.88;0.63;;;;;;;;;;4972568;28;20108;-56
2022/10/30 03:47:28;;;;;;;8.68;0.60;;;;;;;;;;4973086;28;20407;-59
2022/10/30 03:49:55;;;;;;;7.82;0.70;;;;;;;;;;4972901;28;20071;-59
2022/10/30 03:52:22;;;;;;;11.73;1.00;;;;;;;;;;4972749;28;20058;-55
2022/10/30 03:54:49;;;;;;;12.75;1.30;;;;;;;;;;4975147;28;20030;-58
2022/10/30 03:57:16;;;;;;;25.25;1.00;;;;;;;;;;4986079;28;20125;-58
2022/10/30 03:59:43;;;;;;;16.05;1.63;;;;;;;;;;4972938;28;20030;-59
2022/10/30 04:02:10;;;;;;;14.55;1.17;;;;;;;;;;4972678;28;20105;-58
2022/10/30 04:04:37;;;;;;;13.50;1.00;;;;;;;;;;4972658;28;20085;-59
2022/10/30 04:07:04;;;;;;;9.52;1.17;;;;;;;;;;4986258;28;20474;-58
2022/10/30 04:09:31;;;;;;;5.88;0.90;;;;;;;;;;4972605;28;20047;-58
2022/10/30 04:11:58;;;;;;;11.77;1.00;;;;;;;;;;4972601;28;20039;-58
2022/10/30 04:14:25;;;;;;;6.55;0.82;;;;;;;;;;4972238;28;20030;-58
2022/10/30 04:16:52;;;;;;;9.23;0.80;;;;;;;;;;4972669;28;20054;-60
2022/10/30 04:19:18;;;;;;;6.43;0.85;;;;;;;;;;4985405;28;20030;-54
2022/10/30 04:21:46;;;;;;;8.50;0.80;;;;;;;;;;4972753;28;20350;-54
2022/10/30 04:24:15;;;;;;;14.85;0.80;;;;;;;;;;4972460;28;20038;-56
2022/10/30 04:26:42;;;;;;;7.65;0.85;;;;;;;;;;4983220;28;20050;-56
2022/10/30 04:29:09;;;;;;;10.73;0.90;;;;;;;;;;4972699;28;20090;-57
2022/10/30 04:31:36;;;;;;;9.13;0.80;;;;;;;;;;4971774;28;20035;-57
2022/10/30 04:34:03;;;;;;;6.05;1.00;;;;;;;;;;4971964;28;20033;-55
2022/10/30 04:36:32;;;;;;;6.93;0.57;;;;;;;;;;4972222;28;20027;-56
2022/10/30 04:39:01;;;;;;;8.65;0.70;;;;;;;;;;4972427;28;20556;-57
2022/10/30 04:41:28;;;;;;;9.02;0.85;;;;;;;;;;4972364;28;20042;-56
2022/10/30 04:43:55;;;;;;;3.47;0.50;;;;;;;;;;4972699;28;20031;-57
2022/10/30 04:46:22;;;;;;;6.03;0.68;;;;;;;;;;4972232;28;20606;-54
2022/10/30 04:48:49;;;;;;;7.95;0.75;;;;;;;;;;4972774;28;20035;-55
2022/10/30 04:51:16;;;;;;;6.00;0.60;;;;;;;;;;4991097;28;20126;-57
2022/10/30 04:53:43;;;;;;;11.65;0.93;;;;;;;;;;4973261;28;20030;-56
2022/10/30 04:56:10;;;;;;;2.88;0.45;;;;;;;;;;4982585;28;20061;-55
2022/10/30 04:58:37;;;;;;;5.28;0.50;;;;;;;;;;4993630;28;20030;-56
2022/10/30 05:01:05;;;;;;;7.40;0.63;;;;;;;;;;4976132;28;20026;-57
2022/10/30 05:03:32;;;;;;;3.40;0.50;;;;;;;;;;4993697;28;20038;-54
2022/10/30 05:06:01;;;;;;;5.13;0.40;;;;;;;;;;4993636;28;20033;-56
2022/10/30 05:08:28;;;;;;;4.68;0.50;;;;;;;;;;4993559;28;20146;-55
2022/10/30 05:10:56;;;;;;;5.90;0.70;;;;;;;;;;4993845;28;20113;-56
2022/10/30 05:13:23;;;;;;;2.40;0.52;;;;;;;;;;4993542;28;20034;-55
2022/10/30 05:15:50;;;;;;;1.85;0.60;;;;;;;;;;4993560;28;20041;-58
2022/10/30 05:18:18;;;;;;;6.70;0.70;;;;;;;;;;4993498;28;20023;-56
2022/10/30 05:20:46;;;;;;;6.55;0.85;;;;;;;;;;4993429;28;20035;-55
2022/10/30 05:23:13;;;;;;;3.85;0.50;;;;;;;;;;4993272;28;20037;-55
2022/10/30 05:25:40;;;;;;;7.50;0.57;;;;;;;;;;4991573;28;20338;-57
2022/10/30 05:28:07;;;;;;;5.78;0.50;;;;;;;;;;4992648;28;20030;-55
2022/10/30 05:30:35;;;;;;;7.75;0.82;;;;;;;;;;4975824;28;20050;-56
2022/10/30 05:33:03;;;;;;;8.75;0.85;;;;;;;;;;4993277;28;20404;-56
2022/10/30 05:35:33;;;;;;;11.32;0.70;;;;;;;;;;4993382;28;20038;-53
2022/10/30 05:38:01;;;;;;;5.05;0.50;;;;;;;;;;4993051;28;20030;-53
2022/10/30 05:40:28;;;;;;;9.82;0.70;;;;;;;;;;4993078;28;20034;-54
2022/10/30 05:42:55;;;;;;;9.35;0.50;;;;;;;;;;4992147;28;20481;-53
2022/10/30 05:45:22;;;;;;;3.92;0.55;;;;;;;;;;4993157;28;20027;-53
2022/10/30 05:47:59;;;;;;;7.80;0.63;;;;;;;;;;4993116;28;20034;-56
2022/10/30 05:50:26;;;;;;;8.93;0.63;;;;;;;;;;4992180;28;20073;-52
2022/10/30 05:53:03;;;;;;;6.00;0.50;;;;;;;;;;4993125;28;20034;-53
2022/10/30 05:55:30;;;;;;;9.52;0.52;;;;;;;;;;4993670;28;20104;-53
2022/10/30 05:57:58;;;;;;;7.20;0.60;;;;;;;;;;4982777;28;20489;-55
2022/10/30 06:00:25;;;;;;;3.05;0.30;;;;;;;;;;4975069;28;20112;-54
2022/10/30 06:02:53;;;;;;;2.55;0.40;;;;;;;;;;4985207;28;20061;-55
2022/10/30 06:05:19;;;;;;;6.90;0.60;;;;;;;;;;4991606;28;20030;-52
2022/10/30 06:07:46;;;;;;;4.53;0.35;;;;;;;;;;4974423;28;20038;-54
2022/10/30 06:10:13;;;;;;;2.95;0.50;;;;;;;;;;4974460;28;20039;-56
2022/10/30 06:12:40;;;;;;;4.97;0.60;;;;;;;;;;4974325;28;20039;-55
2022/10/30 06:15:07;;;;;;;2.10;0.40;;;;;;;;;;4974692;28;20397;-53
2022/10/30 06:17:34;;;;;;;5.45;0.45;;;;;;;;;;4974528;28;20118;-56
2022/10/30 06:20:01;;;;;;;3.95;0.40;;;;;;;;;;4974602;28;20481;-54
2022/10/30 06:22:28;;;;;;;4.85;0.30;;;;;;;;;;4988035;28;20050;-57
2022/10/30 06:24:55;;;;;;;2.55;0.40;;;;;;;;;;4974297;28;20049;-56
2022/10/30 06:27:22;;;;;;;1.27;0.20;;;;;;;;;;4976261;28;20030;-53
2022/10/30 06:29:49;;;;;;;2.63;0.25;;;;;;;;;;4985531;28;20038;-56
2022/10/30 06:32:16;;;;;;;1.13;0.20;;;;;;;;;;4974154;28;20045;-54
2022/10/30 06:34:43;;;;;;;1.38;0.20;;;;;;;;;;4974239;28;20066;-57
2022/10/30 06:37:10;;;;;;;1.67;0.20;;;;;;;;;;4974027;28;20039;-56
2022/10/30 06:39:37;;;;;;;1.02;0.17;;;;;;;;;;4973828;28;20109;-57
2022/10/30 06:42:04;;;;;;;2.28;0.20;;;;;;;;;;4974105;28;20118;-56
2022/10/30 06:44:31;;;;;;;1.55;0.38;;;;;;;;;;4973903;28;20378;-56
2022/10/30 06:46:58;;;;;;;1.80;0.20;;;;;;;;;;4974091;28;20065;-56
2022/10/30 06:49:25;;;;;;;1.27;0.10;;;;;;;;;;4973840;28;20035;-55
2022/10/30 06:51:52;;;;;;;0.55;0.10;;;;;;;;;;4974046;28;20038;-53
2022/10/30 06:54:19;;;;;;;2.10;0.20;;;;;;;;;;4974026;28;20023;-54
2022/10/30 06:56:50;;;;;;;0.20;0.10;;;;;;;;;;4989539;28;20049;-56
2022/10/30 06:59:17;;;;;;;0.32;0.20;;;;;;;;;;4984550;28;20575;-53
2022/10/30 07:01:44;;;;;;;0.30;0.20;;;;;;;;;;4973638;28;20484;-55
2022/10/30 07:04:11;;;;;;;3.13;0.20;;;;;;;;;;4973877;28;20042;-55
2022/10/30 07:06:38;;;;;;;1.02;0.20;;;;;;;;;;4973880;28;20066;-56
2022/10/30 07:09:05;;;;;;;0.77;0.20;;;;;;;;;;4973240;28;20039;-56
2022/10/30 07:11:32;;;;;;;0.22;0.15;;;;;;;;;;4973457;28;20499;-56
2022/10/30 07:13:59;;;;;;;2.25;0.22;;;;;;;;;;4973572;28;20166;-57
2022/10/30 07:16:26;;;;;;;1.13;0.20;;;;;;;;;;4973547;28;20034;-56
2022/10/30 07:18:55;;;;;;;0.77;0.17;;;;;;;;;;4972723;28;20110;-55
2022/10/30 07:21:21;;;;;;;0.98;0.10;;;;;;;;;;4973320;28;20054;-55
2022/10/30 07:23:48;;;;;;;1.45;0.13;;;;;;;;;;4973444;28;20065;-53
2022/10/30 07:26:15;;;;;;;0.30;0.10;;;;;;;;;;4973351;28;20034;-55
2022/10/30 07:28:42;;;;;;;0.15;0.10;;;;;;;;;;4973387;28;20117;-54
2022/10/30 07:31:09;;;;;;;0.77;0.20;;;;;;;;;;4973124;28;20034;-51
2022/10/30 07:33:36;;;;;;;0.25;0.20;;;;;;;;;;4973267;28;20507;-53
2022/10/30 07:36:03;;;;;;;0.20;0.10;;;;;;;;;;4973186;28;20026;-54
2022/10/30 07:38:30;;;;;;;0.77;0.10;;;;;;;;;;4973199;28;20034;-56
2022/10/30 07:40:57;;;;;;;0.45;0.10;;;;;;;;;;4973150;28;20388;-54
2022/10/30 07:43:24;;;;;;;0.40;0.10;;;;;;;;;;4973143;28;20392;-56
2022/10/30 07:45:51;;;;;;;0.32;0.10;;;;;;;;;;4972940;28;20086;-56
2022/10/30 07:48:18;;;;;;;0.52;0.20;;;;;;;;;;4976512;28;20374;-56
2022/10/30 07:50:45;;;;;;;0.20;0.15;;;;;;;;;;4992319;28;20041;-53
2022/10/30 07:53:12;;;;;;;0.32;0.10;;;;;;;;;;4973811;28;20023;-53
2022/10/30 07:55:39;;;;;;;0.20;0.20;;;;;;;;;;4979841;28;20073;-54
2022/10/30 07:58:06;;;;;;;0.25;0.20;;;;;;;;;;4979721;28;20026;-56
2022/10/30 08:00:33;;;;;;;0.90;0.20;;;;;;;;;;4972866;28;20502;-56
2022/10/30 08:03:00;;;;;;;0.85;0.13;;;;;;;;;;4972940;28;20037;-56
2022/10/30 08:05:27;;;;;;;0.47;0.17;;;;;;;;;;4976372;28;20038;-56
2022/10/30 08:07:54;;;;;;;0.52;0.20;;;;;;;;;;4982759;28;20133;-56
2022/10/30 08:10:21;;;;;;;0.22;0.10;;;;;;;;;;4972459;28;20047;-56
2022/10/30 08:12:48;;;;;;;1.15;0.10;;;;;;;;;;4972736;28;20138;-55
2022/10/30 08:15:15;;;;;;;0.47;0.13;;;;;;;;;;4972636;28;20041;-51
2022/10/30 08:17:45;;;;;;;0.73;0.20;;;;;;;;;;4972853;28;20045;-53
2022/10/30 08:20:13;;;;;;;0.28;0.10;;;;;;;;;;4972875;28;20038;-50
2022/10/30 08:22:50;;;;;;;4.00;0.20;;;;;;;;;;4972578;28;20031;-55
2022/10/30 08:25:18;;;;;;;0.45;0.20;;;;;;;;;;4972787;28;20428;-56
2022/10/30 08:27:51;;;;;;;1.00;0.20;;;;;;;;;;4979363;28;20029;-50
2022/10/30 08:30:18;;;;;;;1.65;0.20;;;;;;;;;;4980746;28;20049;-54
2022/10/30 08:32:48;;;;;;;0.70;0.20;;;;;;;;;;4976292;28;20049;-53
2022/10/30 08:35:16;;;;;;;2.35;0.20;;;;;;;;;;4976773;28;20045;-55
2022/10/30 08:37:43;;;;;;;0.80;0.20;;;;;;;;;;4976278;28;20444;-51
2022/10/30 08:40:11;;;;;;;0.40;0.30;;;;;;;;;;4976397;28;20062;-53
2022/10/30 08:42:38;;;;;;;1.55;0.20;;;;;;;;;;4976238;28;20031;-56
2022/10/30 08:45:05;;;;;;;0.85;0.30;;;;;;;;;;4976345;28;20038;-56
2022/10/30 08:47:32;;;;;;;0.47;0.20;;;;;;;;;;4976147;28;20109;-52
2022/10/30 08:49:59;;;;;;;0.25;0.10;;;;;;;;;;4976142;28;20121;-54
2022/10/30 08:52:26;;;;;;;0.30;0.17;;;;;;;;;;4976138;28;20411;-55
2022/10/30 08:54:53;;;;;;;0.70;0.22;;;;;;;;;;4976572;28;20085;-55
2022/10/30 08:57:20;;;;;;;1.05;0.30;;;;;;;;;;4988950;28;20039;-55
2022/10/30 08:59:47;;;;;;;0.52;0.25;;;;;;;;;;4976233;28;20073;-55
2022/10/30 09:02:14;;;;;;;1.58;0.20;;;;;;;;;;4975782;28;20026;-55
2022/10/30 09:04:41;;;;;;;0.43;0.20;;;;;;;;;;4975833;28;20035;-56
2022/10/30 09:07:08;;;;;;;1.00;0.10;;;;;;;;;;4975926;28;20086;-53
2022/10/30 09:09:35;;;;;;;0.85;0.20;;;;;;;;;;4975645;28;20043;-55
2022/10/30 09:12:02;;;;;;;0.63;0.10;;;;;;;;;;4975721;28;20110;-56
2022/10/30 09:14:29;;;;;;;1.60;0.20;;;;;;;;;;4975917;28;20109;-56
2022/10/30 09:16:55;;;;;;;0.22;0.15;;;;;;;;;;4975636;28;20112;-55
2022/10/30 09:19:23;;;;;;;0.35;0.10;;;;;;;;;;4975648;28;20397;-56
2022/10/30 09:21:50;;;;;;;1.33;0.20;;;;;;;;;;4975562;28;20089;-52
2022/10/30 09:24:17;;;;;;;0.75;0.20;;;;;;;;;;4975366;28;20034;-53
2022/10/30 09:26:44;;;;;;;0.43;0.20;;;;;;;;;;4975620;28;20027;-51
2022/10/30 09:29:11;;;;;;;0.10;0.10;;;;;;;;;;4975399;28;20042;-52
2022/10/30 09:31:38;;;;;;;0.38;0.17;;;;;;;;;;4975584;28;20042;-52
2022/10/30 09:34:05;;;;;;;0.20;0.10;;;;;;;;;;4975302;28;20094;-52
2022/10/30 09:36:32;;;;;;;0.20;0.10;;;;;;;;;;4975206;28;20080;-52
2022/10/30 09:38:59;;;;;;;0.15;0.10;;;;;;;;;;4975514;28;20055;-54
2022/10/30 09:41:29;;;;;;;0.30;0.20;;;;;;;;;;4975071;28;20034;-55
2022/10/30 09:44:07;;;;;;;0.73;0.20;;;;;;;;;;4974625;28;20517;-54
2022/10/30 09:46:46;;;;;;;0.20;0.20;;;;;;;;;;4975086;28;20535;-56
2022/10/30 09:49:16;;;;;;;1.02;0.10;;;;;;;;;;4975027;28;20516;-55
2022/10/30 09:51:43;;;;;;;1.65;0.20;;;;;;;;;;4974996;28;20082;-55
2022/10/30 09:54:14;;;;;;;0.70;0.10;;;;;;;;;;4975059;28;20084;-55
2022/10/30 09:57:03;;;;;;;1.75;0.30;;;;;;;;;;4988358;28;20084;-53
2022/10/30 09:59:37;;;;;;;4.63;0.40;;;;;;;;;;4956304;28;20047;-54
2022/10/30 10:02:17;;;;;;;1.83;0.15;;;;;;;;;;4974693;28;20066;-51
2022/10/30 10:04:48;;;;;;;1.40;0.20;;;;;;;;;;4974829;28;20033;-51
2022/10/30 10:07:32;;;;;;;2.45;0.30;;;;;;;;;;4974769;28;20105;-54
2022/10/30 10:10:06;;;;;;;0.85;0.20;;;;;;;;;;4974646;28;20501;-55
2022/10/30 10:12:38;;;;;;;1.58;0.20;;;;;;;;;;4974600;28;20089;-50
2022/10/30 10:15:09;;;;;;;3.08;0.28;;;;;;;;;;4974589;28;20050;-54
2022/10/30 10:17:39;;;;;;;1.30;0.20;;;;;;;;;;4974597;28;20038;-55
2022/10/30 10:20:11;;;;;;;5.63;0.38;;;;;;;;;;4974737;28;20035;-56
2022/10/30 10:22:45;;;;;;;3.72;0.50;;;;;;;;;;4988067;28;20504;-56
2022/10/30 10:25:14;;;;;;;7.40;0.47;;;;;;;;;;4974399;28;20042;-54
2022/10/30 10:27:47;;;;;;;2.80;0.30;;;;;;;;;;4974417;28;20026;-55
2022/10/30 10:30:17;;;;;;;4.63;0.50;;;;;;;;;;4985745;28;20050;-53
2022/10/30 10:32:52;;;;;;;8.40;0.65;;;;;;;;;;4975817;28;20034;-56
2022/10/30 10:35:25;;;;;;;10.25;0.70;;;;;;;;;;4974411;28;20075;-56
2022/10/30 10:38:00;;;;;;;7.18;0.68;;;;;;;;;;4974312;28;20031;-54
2022/10/30 10:40:33;;;;;;;6.30;0.60;;;;;;;;;;4974353;28;20023;-54
2022/10/30 10:43:22;;;;;;;7.45;0.45;;;;;;;;;;4974241;28;20041;-53
2022/10/30 10:45:49;;;;;;;6.15;0.70;;;;;;;;;;4974151;28;20046;-54
2022/10/30 10:48:34;;;;;;;6.50;0.85;;;;;;;;;;4974141;28;20022;-51
2022/10/30 10:51:07;;;;;;;30.63;1.90;;;;;;;;;;4973745;28;20133;-55
2022/10/30 10:53:42;;;;;;;14.02;1.25;;;;;;;;;;4973881;28;20035;-54
2022/10/30 10:56:10;;;;;;;7.88;0.80;;;;;;;;;;4984701;28;20054;-51
2022/10/30 10:58:51;;;;;;;10.48;1.02;;;;;;;;;;4976097;28;20481;-55
2022/10/30 11:01:22;;;;;;;16.15;1.60;;;;;;;;;;4973755;28;20039;-54
2022/10/30 11:03:58;;;;;;;21.95;1.92;;;;;;;;;;4973670;28;20366;-54
2022/10/30 11:06:31;;;;;;;15.93;1.20;;;;;;;;;;4973822;28;20577;-56
2022/10/30 11:09:18;;;;;;;14.98;1.63;;;;;;;;;;4973431;28;20550;-55
2022/10/30 11:11:49;;;;;;;11.43;1.27;;;;;;;;;;4973537;28;20042;-48
2022/10/30 11:14:21;;;;;;;15.50;1.58;;;;;;;;;;4973625;28;20035;-55
2022/10/30 11:16:50;;;;;;;20.45;1.40;;;;;;;;;;4973611;28;20046;-54
2022/10/30 11:19:17;;;;;;;16.75;1.50;;;;;;;;;;4973458;28;20022;-53
2022/10/30 11:21:55;;;;;;;17.55;1.55;;;;;;;;;;4973466;28;20093;-55
2022/10/30 11:24:30;;;;;;;17.67;2.03;;;;;;;;;;4992206;28;20101;-53
2022/10/30 11:26:58;;;;;;;17.13;1.52;;;;;;;;;;4992890;28;20050;-55
2022/10/30 11:29:28;;;;;;;19.15;1.60;;;;;;;;;;4974154;28;20043;-55
2022/10/30 11:32:02;;;;;;;26.48;2.60;;;;;;;;;;4973226;28;20023;-53
2022/10/30 11:34:38;;;;;;;20.75;1.80;;;;;;;;;;4973235;28;20130;-55
2022/10/30 11:37:05;;;;;;;15.43;1.70;;;;;;;;;;4973340;28;20150;-55
2022/10/30 11:39:33;;;;;;;16.83;1.77;;;;;;;;;;4973169;28;20029;-56
2022/10/30 11:42:00;;;;;;;18.02;1.63;;;;;;;;;;4973074;28;20464;-52
2022/10/30 11:44:48;;;;;;;19.35;1.95;;;;;;;;;;4973038;28;20046;-55
2022/10/30 11:47:16;;;;;;;21.48;1.92;;;;;;;;;;4973089;28;20134;-54
2022/10/30 11:49:48;;;;;;;19.95;2.40;;;;;;;;;;4972868;28;20042;-50
2022/10/30 11:52:16;;;;;;;14.52;1.50;;;;;;;;;;4972886;28;20027;-52
2022/10/30 11:54:47;;;;;;;14.75;1.50;;;;;;;;;;4973016;28;20027;-48
2022/10/30 11:57:22;;;;;;;15.68;1.63;;;;;;;;;;4972857;28;20400;-53
2022/10/30 11:59:50;;;;;;;20.50;2.10;;;;;;;;;;4972926;28;20138;-50
2022/10/30 12:02:22;;;;;;;29.38;2.13;;;;;;;;;;4972778;28;20042;-50
2022/10/30 12:04:50;;;;;;;20.70;2.13;;;;;;;;;;4973503;28;20121;-48
2022/10/30 12:07:17;;;;;;;17.17;1.55;;;;;;;;;;4979225;28;20031;-51
2022/10/30 12:09:46;;;;;;;17.75;1.70;;;;;;;;;;4979042;28;20059;-50
2022/10/30 12:12:19;;;;;;;23.70;2.25;;;;;;;;;;4992966;28;20031;-49
2022/10/30 12:14:46;;;;;;;21.05;2.30;;;;;;;;;;4981164;28;20116;-54
2022/10/30 12:17:17;;;;;;;21.75;2.08;;;;;;;;;;4982751;28;20440;-52
2022/10/30 12:19:49;;;;;;;22.80;2.30;;;;;;;;;;4979294;28;20031;-52
2022/10/30 12:22:42;;;;;;;30.02;2.10;;;;;;;;;;4979023;28;20034;-52
2022/10/30 12:25:29;;;;;;;30.10;2.75;;;;;;;;;;4977366;28;20046;-47
2022/10/30 12:28:00;;;;;;;23.38;2.88;;;;;;;;;;4979103;28;20114;-52
2022/10/30 12:30:28;;;;;;;30.40;1.95;;;;;;;;;;4978817;28;20040;-50
2022/10/30 12:33:07;;;;;;;25.63;2.17;;;;;;;;;;4979075;28;20029;-48
2022/10/30 12:35:40;;;;;;;22.65;2.80;;;;;;;;;;4979120;28;20113;-49
2022/10/30 12:38:11;;;;;;;22.25;1.95;;;;;;;;;;4979052;28;20478;-52
2022/10/30 12:40:41;;;;;;;22.40;2.50;;;;;;;;;;4978992;28;20093;-50
2022/10/30 12:43:15;;;;;;;27.30;2.35;;;;;;;;;;4978929;28;20029;-49
2022/10/30 12:45:47;;;;;;;19.23;2.05;;;;;;;;;;4978979;28;20030;-54
2022/10/30 12:48:17;;;;;;;23.30;2.17;;;;;;;;;;4978850;28;20033;-50
2022/10/30 12:50:56;;;;;;;26.80;2.30;;;;;;;;;;4978734;28;20664;-51
2022/10/30 12:53:32;;;;;;;23.50;2.55;;;;;;;;;;4978898;28;20085;-51
2022/10/30 12:56:01;;;;;;;25.90;2.72;;;;;;;;;;4988312;28;20022;-52
2022/10/30 12:58:28;;;;;;;29.05;3.20;;;;;;;;;;4982505;28;20037;-50
2022/10/30 13:00:58;;;;;;;22.70;2.35;;;;;;;;;;4978764;28;20368;-52
2022/10/30 13:03:28;;;;;;;24.80;2.65;;;;;;;;;;4978643;28;20046;-50
2022/10/30 13:05:57;;;;;;;24.83;2.63;;;;;;;;;;4978775;28;20023;-56
2022/10/30 13:08:37;;;;;;;24.70;2.08;;;;;;;;;;4992355;28;20034;-56
2022/10/30 13:11:04;;;;;;;25.38;2.30;;;;;;;;;;4990512;28;20039;-58
2022/10/30 13:13:44;;;;;;;24.75;2.65;;;;;;;;;;4978701;28;20098;-57
2022/10/30 13:16:31;;;;;;;25.33;2.40;;;;;;;;;;4978375;28;20027;-53
2022/10/30 13:19:00;;;;;;;17.85;2.20;;;;;;;;;;4974954;28;20090;-50
2022/10/30 13:21:33;;;;;;;24.77;2.05;;;;;;;;;;4975605;28;20130;-56
2022/10/30 13:24:09;;;;;;;18.23;1.95;;;;;;;;;;4974784;28;20061;-52
2022/10/30 13:26:51;;;;;;;21.30;2.63;;;;;;;;;;4975437;28;20029;-57
2022/10/30 13:29:25;;;;;;;21.27;1.92;;;;;;;;;;4975508;28;20043;-54
2022/10/30 13:31:51;;;;;;;22.42;2.28;;;;;;;;;;4975242;28;20086;-52
2022/10/30 13:34:38;;;;;;;21.55;2.08;;;;;;;;;;4975402;28;20045;-54
2022/10/30 13:37:08;;;;;;;22.13;2.15;;;;;;;;;;4975211;28;20027;-52
2022/10/30 13:39:42;;;;;;;21.05;2.22;;;;;;;;;;4978890;28;20385;-59
2022/10/30 13:42:21;;;;;;;25.95;2.28;;;;;;;;;;4976635;28;20085;-53
2022/10/30 13:45:04;;;;;;;16.10;1.88;;;;;;;;;;4979766;28;20030;-52
2022/10/30 13:47:54;;;;;;;17.80;2.28;;;;;;;;;;4976775;28;20045;-53
2022/10/30 13:50:36;;;;;;;16.25;2.03;;;;;;;;;;4956212;28;20069;-52
2022/10/30 13:53:04;;;;;;;38.53;2.80;;;;;;;;;;4974499;28;20031;-56
2022/10/30 13:55:35;;;;;;;19.75;2.72;;;;;;;;;;4993440;28;20388;-56
2022/10/30 13:58:11;;;;;;;22.15;2.35;;;;;;;;;;4982122;28;20568;-53
2022/10/30 14:00:56;;;;;;;24.05;2.92;;;;;;;;;;4972719;28;20077;-56
2022/10/30 14:03:29;;;;;;;17.48;2.10;;;;;;;;;;4987788;28;20030;-51
2022/10/30 14:05:59;;;;;;;23.23;2.33;;;;;;;;;;4975312;28;20022;-54
2022/10/30 14:08:32;;;;;;;19.95;2.63;;;;;;;;;;4973924;28;20035;-56
2022/10/30 14:10:59;;;;;;;20.63;2.38;;;;;;;;;;4990447;28;20049;-57
2022/10/30 14:13:35;;;;;;;30.13;2.40;;;;;;;;;;4983491;28;20371;-51
2022/10/30 14:16:02;;;;;;;39.03;3.40;;;;;;;;;;4974037;28;20023;-55
2022/10/30 14:18:30;;;;;;;40.15;3.50;;;;;;;;;;4978690;28;20085;-55
2022/10/30 14:20:58;;;;;;;33.75;2.80;;;;;;;;;;4993300;28;20034;-58
2022/10/30 14:23:28;;;;;;;31.20;3.17;;;;;;;;;;4979031;28;20031;-55
2022/10/30 14:26:04;;;;;;;30.10;2.95;;;;;;;;;;4973619;28;20685;-52
2022/10/30 14:28:32;;;;;;;46.20;3.92;;;;;;;;;;4989904;28;20476;-52
2022/10/30 14:31:03;;;;;;;35.10;3.83;;;;;;;;;;4973751;28;20512;-54
2022/10/30 14:33:52;;;;;;;33.80;3.47;;;;;;;;;;4974334;28;20034;-53
2022/10/30 14:36:22;;;;;;;37.97;4.65;;;;;;;;;;4964182;28;20531;-55
2022/10/30 14:39:00;;;;;;;35.80;4.93;;;;;;;;;;4973741;28;20121;-53
2022/10/30 14:41:31;;;;;;;47.97;5.50;;;;;;;;;;4973448;28;20090;-56
2022/10/30 14:44:24;;;;;;;46.47;4.90;;;;;;;;;;4973718;28;20101;-51
2022/10/30 14:46:54;;;;;;;59.95;5.93;;;;;;;;;;4970168;28;20043;-56
2022/10/30 14:49:39;;;;;;;74.97;6.60;;;;;;;;;;4973498;28;20046;-55
2022/10/30 14:52:46;;;;;;;65.28;6.45;;;;;;;;;;4973494;28;20556;-51
2022/10/30 14:55:38;;;;;;;76.47;7.20;;;;;;;;;;4932571;29;20075;-56